createdAt,value
2018-09-24T00:01:04.010Z,99.90
2018-09-24T00:03:33.511Z,99.90
2018-09-24T00:06:02.898Z,99.90
2018-09-24T00:08:32.444Z,99.90
2018-09-24T00:11:01.743Z,99.90
2018-09-24T00:13:31.094Z,99.90
2018-09-24T00:16:00.499Z,99.90
2018-09-24T00:18:30.023Z,99.90
2018-09-24T00:20:59.383Z,99.90
2018-09-24T00:25:56.208Z,99.90
2018-09-24T00:28:25.710Z,99.90
2018-09-24T00:30:55.047Z,99.90
2018-09-24T00:33:24.550Z,99.90
2018-09-24T00:35:53.911Z,99.90
2018-09-24T00:38:23.283Z,99.90
2018-09-24T00:40:52.639Z,99.90
2018-09-24T00:43:22.041Z,99.90
2018-09-24T00:45:51.547Z,99.90
2018-09-24T00:48:23.576Z,99.90
2018-09-24T00:50:53.097Z,99.90
2018-09-24T00:53:22.634Z,99.90
2018-09-24T00:55:52.177Z,99.90
2018-09-24T00:58:21.630Z,99.90
2018-09-24T01:00:51.034Z,99.90
2018-09-24T01:03:20.642Z,99.90
2018-09-24T01:05:50.175Z,99.90
2018-09-24T01:08:19.578Z,99.90
2018-09-24T01:10:49.087Z,99.90
2018-09-24T01:13:18.605Z,99.90
2018-09-24T01:15:48.118Z,99.90
2018-09-24T01:18:17.441Z,99.90
2018-09-24T01:20:46.991Z,99.90
2018-09-24T01:23:18.403Z,99.90
2018-09-24T01:25:48.106Z,99.90
2018-09-24T01:28:17.500Z,99.90
2018-09-24T01:30:46.927Z,99.90
2018-09-24T01:33:16.375Z,99.90
2018-09-24T01:38:26.211Z,99.90
2018-09-24T01:40:55.731Z,99.90
2018-09-24T01:43:25.110Z,99.90
2018-09-24T01:45:54.640Z,99.90
2018-09-24T01:48:24.227Z,99.90
2018-09-24T01:50:53.584Z,99.90
2018-09-24T01:53:23.195Z,99.90
2018-09-24T01:58:17.135Z,99.90
2018-09-24T02:00:46.543Z,99.90
2018-09-24T02:03:15.958Z,99.90
2018-09-24T02:05:45.550Z,99.90
2018-09-24T02:08:15.091Z,99.90
2018-09-24T02:10:44.473Z,99.90
2018-09-24T02:13:13.923Z,99.90
2018-09-24T02:15:43.475Z,99.90
2018-09-24T02:18:12.926Z,99.90
2018-09-24T02:20:46.947Z,99.90
2018-09-24T02:23:16.849Z,99.90
2018-09-24T02:25:46.452Z,99.90
2018-09-24T02:28:15.891Z,99.90
2018-09-24T02:30:45.271Z,99.90
2018-09-24T02:33:14.800Z,99.90
2018-09-24T02:35:48.058Z,99.90
2018-09-24T02:38:17.999Z,99.90
2018-09-24T02:40:47.550Z,99.90
2018-09-24T02:43:22.796Z,99.90
2018-09-24T02:45:53.316Z,99.90
2018-09-24T02:48:22.962Z,99.90
2018-09-24T02:50:52.422Z,99.90
2018-09-24T02:53:21.878Z,99.90
2018-09-24T02:55:51.443Z,99.90
2018-09-24T02:58:21.874Z,99.90
2018-09-24T03:00:51.414Z,99.90
2018-09-24T03:03:20.763Z,99.90
2018-09-24T03:05:50.254Z,99.90
2018-09-24T03:08:19.597Z,99.90
2018-09-24T03:10:49.150Z,99.90
2018-09-24T03:13:18.703Z,99.90
2018-09-24T03:15:48.191Z,99.90
2018-09-24T03:18:17.563Z,99.90
2018-09-24T03:20:46.951Z,99.90
2018-09-24T03:23:16.310Z,99.90
2018-09-24T03:25:45.734Z,99.90
2018-09-24T03:28:15.278Z,99.90
2018-09-24T03:30:44.807Z,99.90
2018-09-24T03:33:14.250Z,99.90
2018-09-24T03:35:43.618Z,99.90
2018-09-24T03:38:13.110Z,99.90
2018-09-24T03:40:42.638Z,99.90
2018-09-24T03:43:12.091Z,99.90
2018-09-24T03:45:41.490Z,99.90
2018-09-24T03:48:10.999Z,99.90
2018-09-24T03:50:41.054Z,99.90
2018-09-24T03:53:10.600Z,99.90
2018-09-24T03:55:41.034Z,99.90
2018-09-24T03:58:10.479Z,99.90
2018-09-24T04:00:41.018Z,99.90
2018-09-24T04:03:10.358Z,99.90
2018-09-24T04:05:45.275Z,99.90
2018-09-24T04:08:20.195Z,99.90
2018-09-24T04:10:55.107Z,99.90
2018-09-24T04:13:29.910Z,99.90
2018-09-24T04:16:04.566Z,99.90
2018-09-24T04:18:39.198Z,99.90
2018-09-24T04:21:14.145Z,99.90
2018-09-24T04:23:48.954Z,99.90
2018-09-24T04:26:23.561Z,99.90
2018-09-24T04:28:58.343Z,99.90
2018-09-24T04:31:33.119Z,99.90
2018-09-24T04:34:07.807Z,99.90
2018-09-24T04:36:42.595Z,99.90
2018-09-24T04:39:17.414Z,99.90
2018-09-24T04:41:52.307Z,99.90
2018-09-24T04:44:27.031Z,99.90
2018-09-24T04:47:01.908Z,99.90
2018-09-24T04:49:36.704Z,99.90
2018-09-24T04:52:11.724Z,99.90
2018-09-24T04:59:48.387Z,99.90
2018-09-24T05:02:23.296Z,99.90
2018-09-24T05:04:58.148Z,99.90
2018-09-24T05:07:32.808Z,99.90
2018-09-24T05:10:07.474Z,99.90
2018-09-24T05:12:42.146Z,99.90
2018-09-24T05:15:16.959Z,99.90
2018-09-24T05:17:51.826Z,99.90
2018-09-24T05:20:26.610Z,99.90
2018-09-24T05:23:03.776Z,99.90
2018-09-24T05:25:38.620Z,99.90
2018-09-24T05:28:13.136Z,99.90
2018-09-24T05:30:48.073Z,99.90
2018-09-24T05:33:22.966Z,99.90
2018-09-24T05:35:57.715Z,99.90
2018-09-24T05:38:32.555Z,99.90
2018-09-24T05:41:07.381Z,99.90
2018-09-24T05:43:42.307Z,99.90
2018-09-24T05:46:17.135Z,99.90
2018-09-24T05:48:52.059Z,99.90
2018-09-24T05:51:26.558Z,99.90
2018-09-24T05:54:01.427Z,99.90
2018-09-24T05:56:36.263Z,99.90
2018-09-24T05:59:12.063Z,99.90
2018-09-24T06:01:46.852Z,99.90
2018-09-24T06:04:21.446Z,99.90
2018-09-24T06:06:55.953Z,99.90
2018-09-24T06:09:30.614Z,99.90
2018-09-24T06:12:05.531Z,99.90
2018-09-24T06:14:40.279Z,99.90
2018-09-24T06:17:15.923Z,99.90
2018-09-24T06:19:50.741Z,99.90
2018-09-24T06:22:25.451Z,99.90
2018-09-24T06:25:00.162Z,99.90
2018-09-24T06:27:34.922Z,99.90
2018-09-24T06:30:09.875Z,99.90
2018-09-24T06:32:44.708Z,99.90
2018-09-24T06:40:26.043Z,98.10
2018-09-24T06:43:00.755Z,92.80
2018-09-24T06:45:35.615Z,88.50
2018-09-24T06:48:10.494Z,78.80
2018-09-24T06:50:45.135Z,74.70
2018-09-24T06:53:20.055Z,70.10
2018-09-24T06:55:54.776Z,63.80
2018-09-24T06:58:29.383Z,59.70
2018-09-24T07:01:04.250Z,58.30
2018-09-24T07:03:39.462Z,55.60
2018-09-24T07:06:14.187Z,54.90
2018-09-24T07:08:49.071Z,53.30
2018-09-24T07:11:23.758Z,49.30
2018-09-24T07:13:58.426Z,49.20
2018-09-24T07:16:33.427Z,47.10
2018-09-24T07:19:08.299Z,48.60
2018-09-24T07:21:42.943Z,47.30
2018-09-24T07:24:17.715Z,49.30
2018-09-24T07:26:52.527Z,46.00
2018-09-24T07:29:27.338Z,45.40
2018-09-24T07:32:02.231Z,45.30
2018-09-24T07:34:36.875Z,48.30
2018-09-24T07:37:11.697Z,47.50
2018-09-24T07:39:47.214Z,49.10
2018-09-24T07:42:22.099Z,51.30
2018-09-24T07:44:56.753Z,51.00
2018-09-24T07:47:31.383Z,49.40
2018-09-24T07:50:06.107Z,50.10
2018-09-24T07:52:40.936Z,55.20
2018-09-24T07:55:15.899Z,55.70
2018-09-24T07:57:50.719Z,58.10
2018-09-24T08:00:25.539Z,58.60
2018-09-24T08:03:00.235Z,62.90
2018-09-24T08:05:34.962Z,65.90
2018-09-24T08:08:09.743Z,66.40
2018-09-24T08:10:44.514Z,66.30
2018-09-24T08:13:19.417Z,76.50
2018-09-24T08:15:54.021Z,73.00
2018-09-24T08:18:28.685Z,75.80
2018-09-24T08:21:03.723Z,69.10
2018-09-24T08:23:38.766Z,61.20
2018-09-24T08:26:13.482Z,68.70
2018-09-24T08:28:48.249Z,69.90
2018-09-24T08:31:23.018Z,67.70
2018-09-24T08:33:58.508Z,68.40
2018-09-24T08:36:33.007Z,71.80
2018-09-24T08:39:07.646Z,66.80
2018-09-24T08:41:42.455Z,74.80
2018-09-24T08:44:17.266Z,73.90
2018-09-24T08:46:52.471Z,65.00
2018-09-24T08:49:27.162Z,72.70
2018-09-24T08:52:02.084Z,60.30
2018-09-24T08:54:36.909Z,62.20
2018-09-24T08:57:12.214Z,62.10
2018-09-24T08:59:48.188Z,58.20
2018-09-24T09:02:22.885Z,56.60
2018-09-24T09:04:57.752Z,57.30
2018-09-24T09:07:34.168Z,60.80
2018-09-24T09:10:08.907Z,57.80
2018-09-24T09:12:43.770Z,55.80
2018-09-24T09:15:18.481Z,56.60
2018-09-24T09:17:53.202Z,54.50
2018-09-24T09:20:27.983Z,56.10
2018-09-24T09:23:02.676Z,54.90
2018-09-24T09:25:37.282Z,57.60
2018-09-24T09:28:12.771Z,55.20
2018-09-24T09:30:47.515Z,50.60
2018-09-24T09:33:22.159Z,49.70
2018-09-24T09:35:56.762Z,49.80
2018-09-24T09:38:31.619Z,51.80
2018-09-24T09:41:06.614Z,46.00
2018-09-24T09:43:41.457Z,48.70
2018-09-24T09:46:16.186Z,46.40
2018-09-24T09:48:50.718Z,44.30
2018-09-24T09:51:25.282Z,46.00
2018-09-24T09:54:00.239Z,49.60
2018-09-24T09:56:34.919Z,50.70
2018-09-24T10:01:51.119Z,46.60
2018-09-24T10:04:27.379Z,51.30
2018-09-24T10:07:02.214Z,47.90
2018-09-24T10:09:36.940Z,50.00
2018-09-24T10:12:11.650Z,47.50
2018-09-24T10:14:47.400Z,47.80
2018-09-24T10:17:22.340Z,46.40
2018-09-24T10:19:56.864Z,48.10
2018-09-24T10:22:32.135Z,44.40
2018-09-24T10:25:06.906Z,46.00
2018-09-24T10:27:41.787Z,43.30
2018-09-24T10:30:16.471Z,43.60
2018-09-24T10:32:51.046Z,46.90
2018-09-24T10:35:25.807Z,46.10
2018-09-24T10:38:00.408Z,39.40
2018-09-24T10:40:35.031Z,38.50
2018-09-24T10:43:09.800Z,40.80
2018-09-24T10:45:44.592Z,43.70
2018-09-24T10:48:19.467Z,43.80
2018-09-24T10:50:54.222Z,40.80
2018-09-24T10:53:28.867Z,43.70
2018-09-24T10:56:03.616Z,40.30
2018-09-24T10:58:38.483Z,40.00
2018-09-24T11:01:13.226Z,40.60
2018-09-24T11:03:48.218Z,42.50
2018-09-24T11:06:22.886Z,43.20
2018-09-24T11:08:57.912Z,45.20
2018-09-24T11:11:32.423Z,41.80
2018-09-24T11:14:07.164Z,41.20
2018-09-24T11:16:42.270Z,42.60
2018-09-24T11:19:16.847Z,43.80
2018-09-24T11:21:51.642Z,46.00
2018-09-24T11:24:26.573Z,44.60
2018-09-24T11:27:01.211Z,43.10
2018-09-24T11:29:35.932Z,45.20
2018-09-24T11:32:10.414Z,43.20
2018-09-24T11:34:45.015Z,40.70
2018-09-24T11:37:19.798Z,41.50
2018-09-24T11:39:54.607Z,43.40
2018-09-24T11:42:29.316Z,41.00
2018-09-24T11:45:07.852Z,43.40
2018-09-24T11:47:44.093Z,42.60
2018-09-24T11:50:18.711Z,41.50
2018-09-24T11:52:53.231Z,43.90
2018-09-24T11:55:27.825Z,42.90
2018-09-24T11:58:02.736Z,45.00
2018-09-24T12:00:37.490Z,38.40
2018-09-24T12:03:12.255Z,38.40
2018-09-24T12:05:49.458Z,39.70
2018-09-24T12:08:24.372Z,41.00
2018-09-24T12:10:59.166Z,40.50
2018-09-24T12:13:33.894Z,42.20
2018-09-24T12:16:08.529Z,38.60
2018-09-24T12:18:43.222Z,43.00
2018-09-24T12:21:18.074Z,38.40
2018-09-24T12:23:52.914Z,39.10
2018-09-24T12:26:27.748Z,36.80
2018-09-24T12:29:02.552Z,42.50
2018-09-24T12:31:37.279Z,35.70
2018-09-24T12:34:12.075Z,35.40
2018-09-24T12:36:47.682Z,34.60
2018-09-24T12:39:23.108Z,34.90
2018-09-24T12:41:57.897Z,35.60
2018-09-24T12:44:32.822Z,36.10
2018-09-24T12:47:09.606Z,38.00
2018-09-24T12:49:44.387Z,36.60
2018-09-24T12:52:18.888Z,38.10
2018-09-24T12:54:53.748Z,40.60
2018-09-24T12:57:28.344Z,40.30
2018-09-24T13:00:02.870Z,37.40
2018-09-24T13:02:37.734Z,35.80
2018-09-24T13:05:12.695Z,35.90
2018-09-24T13:07:50.594Z,40.00
2018-09-24T13:10:25.422Z,37.00
2018-09-24T13:13:00.183Z,41.00
2018-09-24T13:15:34.860Z,39.80
2018-09-24T13:18:09.555Z,37.20
2018-09-24T13:20:44.078Z,38.20
2018-09-24T13:23:19.063Z,37.80
2018-09-24T13:25:53.631Z,38.70
2018-09-24T13:28:30.263Z,36.80
2018-09-24T13:31:04.916Z,38.00
2018-09-24T13:41:03.974Z,37.40
2018-09-24T13:43:39.269Z,40.70
2018-09-24T13:46:13.990Z,38.50
2018-09-24T13:48:48.811Z,40.60
2018-09-24T13:51:23.657Z,38.70
2018-09-24T13:53:58.574Z,40.60
2018-09-24T13:56:33.444Z,39.10
2018-09-24T13:59:08.070Z,40.40
2018-09-24T14:01:42.836Z,41.50
2018-09-24T14:04:17.792Z,45.90
2018-09-24T14:06:52.531Z,40.80
2018-09-24T14:09:27.409Z,40.00
2018-09-24T14:12:01.903Z,40.90
2018-09-24T14:14:36.667Z,40.80
2018-09-24T14:17:11.250Z,42.70
2018-09-24T14:19:46.007Z,38.80
2018-09-24T14:22:20.671Z,36.30
2018-09-24T14:24:55.323Z,37.30
2018-09-24T14:27:29.901Z,35.60
2018-09-24T14:30:05.455Z,39.20
2018-09-24T14:32:40.262Z,37.90
2018-09-24T14:35:14.902Z,39.80
2018-09-24T14:37:49.544Z,37.70
2018-09-24T14:40:24.139Z,36.90
2018-09-24T14:42:58.894Z,37.60
2018-09-24T14:45:33.519Z,38.90
2018-09-24T14:48:08.130Z,39.40
2018-09-24T14:50:42.875Z,40.40
2018-09-24T14:53:17.472Z,37.80
2018-09-24T14:55:52.167Z,40.00
2018-09-24T14:58:26.839Z,40.80
2018-09-24T15:01:01.490Z,39.40
2018-09-24T15:03:36.398Z,39.60
2018-09-24T15:06:12.626Z,38.30
2018-09-24T15:08:48.348Z,37.70
2018-09-24T15:11:22.951Z,35.90
2018-09-24T15:13:57.911Z,35.80
2018-09-24T15:16:32.891Z,38.50
2018-09-24T15:19:07.671Z,37.90
2018-09-24T15:21:42.619Z,35.70
2018-09-24T15:24:17.292Z,36.40
2018-09-24T15:26:52.076Z,36.00
2018-09-24T15:29:26.748Z,39.80
2018-09-24T15:32:01.643Z,37.50
2018-09-24T15:34:36.431Z,37.60
2018-09-24T15:37:11.271Z,37.40
2018-09-24T15:39:45.930Z,40.00
2018-09-24T15:42:21.518Z,42.60
2018-09-24T15:44:56.370Z,44.30
2018-09-24T15:47:31.309Z,47.20
2018-09-24T15:50:06.483Z,48.00
2018-09-24T15:52:41.106Z,46.70
2018-09-24T15:55:15.795Z,46.50
2018-09-24T15:57:50.706Z,47.50
2018-09-24T16:00:25.570Z,48.40
2018-09-24T16:03:00.161Z,47.90
2018-09-24T16:05:34.720Z,48.00
2018-09-24T16:08:09.514Z,49.10
2018-09-24T16:10:44.458Z,48.90
2018-09-24T16:13:19.245Z,48.10
2018-09-24T16:15:54.041Z,47.80
2018-09-24T16:18:30.686Z,47.50
2018-09-24T16:21:05.581Z,48.30
2018-09-24T16:23:40.840Z,46.10
2018-09-24T16:26:15.662Z,48.20
2018-09-24T16:28:52.691Z,47.80
2018-09-24T16:31:27.519Z,47.30
2018-09-24T16:34:02.338Z,47.80
2018-09-24T16:36:37.031Z,49.20
2018-09-24T16:39:13.669Z,50.00
2018-09-24T16:41:48.606Z,48.50
2018-09-24T16:44:23.204Z,48.40
2018-09-24T16:46:58.586Z,47.10
2018-09-24T16:49:33.327Z,48.90
2018-09-24T16:52:07.839Z,49.50
2018-09-24T16:54:42.490Z,51.80
2018-09-24T16:57:17.082Z,52.00
2018-09-24T16:59:51.858Z,52.00
2018-09-24T17:02:26.661Z,53.10
2018-09-24T17:05:01.462Z,55.30
2018-09-24T17:07:36.309Z,56.30
2018-09-24T17:10:11.354Z,54.40
2018-09-24T17:12:46.808Z,57.30
2018-09-24T17:15:21.719Z,58.60
2018-09-24T17:17:56.594Z,58.50
2018-09-24T17:20:31.479Z,59.80
2018-09-24T17:23:06.075Z,62.70
2018-09-24T17:25:40.838Z,62.40
2018-09-24T17:28:15.475Z,65.50
2018-09-24T17:30:50.179Z,71.40
2018-09-24T17:33:24.836Z,69.80
2018-09-24T17:35:59.659Z,70.70
2018-09-24T17:38:34.442Z,68.00
2018-09-24T17:41:09.074Z,69.10
2018-09-24T17:43:43.923Z,75.20
2018-09-24T17:46:18.769Z,75.90
2018-09-24T17:48:53.718Z,75.80
2018-09-24T17:51:28.759Z,76.90
2018-09-24T17:54:03.598Z,80.20
2018-09-24T17:56:38.509Z,80.80
2018-09-24T17:59:13.943Z,76.80
2018-09-24T18:01:48.887Z,79.50
2018-09-24T18:04:23.786Z,80.50
2018-09-24T18:06:58.626Z,90.10
2018-09-24T18:09:33.635Z,84.20
2018-09-24T18:12:08.309Z,89.90
2018-09-24T18:14:43.134Z,92.90
2018-09-24T18:17:17.839Z,94.90
2018-09-24T18:19:52.486Z,93.60
2018-09-24T18:22:27.166Z,96.30
2018-09-24T18:25:02.145Z,97.40
2018-09-24T18:27:36.920Z,99.60
2018-09-24T18:30:11.742Z,98.90
2018-09-24T18:32:47.685Z,99.90
2018-09-24T18:35:22.298Z,99.90
2018-09-24T18:37:56.952Z,99.20
2018-09-24T18:40:31.697Z,99.50
2018-09-24T18:43:06.396Z,99.90
2018-09-24T18:45:41.124Z,99.90
2018-09-24T18:48:16.019Z,99.90
2018-09-24T18:50:50.747Z,99.90
2018-09-24T18:53:25.719Z,99.90
2018-09-24T18:56:00.742Z,99.90
2018-09-24T18:58:35.383Z,99.90
2018-09-24T19:01:09.981Z,99.90
2018-09-24T19:03:44.611Z,99.90
2018-09-24T19:06:19.414Z,99.90
2018-09-24T19:08:54.019Z,99.90
2018-09-24T19:11:28.743Z,99.90
2018-09-24T19:14:03.498Z,99.90
2018-09-24T19:16:38.288Z,99.90
2018-09-24T19:19:13.167Z,99.90
2018-09-24T19:21:47.911Z,99.90
2018-09-24T19:24:22.704Z,99.90
2018-09-24T19:26:57.434Z,99.90
2018-09-24T19:34:33.678Z,99.90
2018-09-24T19:37:08.417Z,99.90
2018-09-24T19:39:43.208Z,99.90
2018-09-24T19:42:17.890Z,99.90
2018-09-24T19:44:52.546Z,99.90
2018-09-24T19:47:27.308Z,99.90
2018-09-24T19:50:01.923Z,99.90
2018-09-24T19:52:36.771Z,99.90
2018-09-24T19:55:11.427Z,99.90
2018-09-24T19:57:47.487Z,99.90
2018-09-24T20:00:22.267Z,99.90
2018-09-24T20:02:57.172Z,99.90
2018-09-24T20:05:31.718Z,99.90
2018-09-24T20:08:06.610Z,99.90
2018-09-24T20:10:41.321Z,99.90
2018-09-24T20:13:16.034Z,99.90
2018-09-24T20:15:50.703Z,99.90
2018-09-24T20:18:25.499Z,99.90
2018-09-24T20:21:00.128Z,99.90
2018-09-24T20:23:34.943Z,99.90
2018-09-24T20:26:09.731Z,99.90
2018-09-24T20:28:44.487Z,99.90
2018-09-24T20:31:19.258Z,99.90
2018-09-24T20:33:53.958Z,99.90
2018-09-24T20:36:28.771Z,99.90
2018-09-24T20:39:03.482Z,99.90
2018-09-24T20:41:38.136Z,99.90
2018-09-24T20:44:13.008Z,99.90
2018-09-24T20:46:47.683Z,99.90
2018-09-24T20:49:22.296Z,99.90
2018-09-24T20:51:57.111Z,99.90
2018-09-24T20:54:31.790Z,99.90
2018-09-24T20:57:06.363Z,99.90
2018-09-24T20:59:43.504Z,99.90
2018-09-24T21:02:18.083Z,99.90
2018-09-24T21:04:52.661Z,99.90
2018-09-24T21:07:27.392Z,99.90
2018-09-24T21:10:02.183Z,99.90
2018-09-24T21:12:36.836Z,99.90
2018-09-24T21:15:11.906Z,99.90
2018-09-24T21:17:46.578Z,99.90
2018-09-24T21:20:21.493Z,99.90
2018-09-24T21:22:56.210Z,99.90
2018-09-24T21:25:30.948Z,99.90
2018-09-24T21:28:06.496Z,99.90
2018-09-24T21:30:41.335Z,99.90
2018-09-24T21:33:16.075Z,99.90
2018-09-24T21:35:50.735Z,99.90
2018-09-24T21:38:25.399Z,99.90
2018-09-24T21:41:01.524Z,99.90
2018-09-24T21:43:36.283Z,99.90
2018-09-24T21:46:11.073Z,99.90
2018-09-24T21:48:45.766Z,99.90
2018-09-24T21:51:20.358Z,99.90
2018-09-24T21:53:55.129Z,99.90
2018-09-24T21:56:29.946Z,99.90
2018-09-24T21:59:04.734Z,99.90
2018-09-24T22:01:39.551Z,99.90
2018-09-24T22:04:14.196Z,99.90
2018-09-24T22:06:49.797Z,99.90
2018-09-24T22:09:24.433Z,99.90
2018-09-24T22:11:59.331Z,99.90
2018-09-24T22:14:34.026Z,99.90
2018-09-24T22:17:08.667Z,99.90
2018-09-24T22:19:43.509Z,99.90
2018-09-24T22:22:19.599Z,99.90
2018-09-24T22:24:54.101Z,99.90
2018-09-24T22:27:28.959Z,99.90
2018-09-24T22:30:03.454Z,99.90
2018-09-24T22:32:38.164Z,99.90
2018-09-24T22:35:13.007Z,99.90
2018-09-24T22:37:47.763Z,99.90
2018-09-24T22:40:22.532Z,99.90
2018-09-24T22:42:57.071Z,99.90
2018-09-24T22:45:31.864Z,99.90
2018-09-24T22:48:06.395Z,99.90
2018-09-24T22:50:40.970Z,99.90
2018-09-24T22:53:15.752Z,99.90
2018-09-24T22:55:50.432Z,99.90
2018-09-24T22:58:25.067Z,99.90
2018-09-24T23:00:59.892Z,99.90
2018-09-24T23:03:34.912Z,99.90
2018-09-24T23:06:09.662Z,99.90
2018-09-24T23:13:44.909Z,99.90
2018-09-24T23:16:19.726Z,99.90
2018-09-24T23:18:54.397Z,99.90
2018-09-24T23:21:29.148Z,99.90
2018-09-24T23:24:03.922Z,99.90
2018-09-24T23:26:38.519Z,99.90
2018-09-24T23:29:12.974Z,99.90
2018-09-24T23:31:47.459Z,99.90
2018-09-24T23:34:22.205Z,99.90
2018-09-24T23:36:57.024Z,99.90
2018-09-24T23:39:31.911Z,99.90
2018-09-24T23:42:06.707Z,99.90
2018-09-24T23:44:41.462Z,99.90
2018-09-24T23:47:16.063Z,99.90
2018-09-24T23:49:50.803Z,99.90
2018-09-24T23:52:25.578Z,99.90
2018-09-24T23:55:00.179Z,99.90
2018-09-24T23:57:35.324Z,99.90
